sensor_id;sensor_type;location;lat;lon;timestamp;temperature;humidity
12847;DHT22;6492;48.128;8.320;2024-02-16T00:02:55;9.80;4.30
12847;DHT22;6492;48.128;8.320;2024-02-16T00:06:57;9.70;3.60
12847;DHT22;6492;48.128;8.320;2024-02-16T00:11:00;9.60;3.90
12847;DHT22;6492;48.128;8.320;2024-02-16T00:15:03;9.50;5.00
12847;DHT22;6492;48.128;8.320;2024-02-16T00:19:04;9.40;5.10
12847;DHT22;6492;48.128;8.320;2024-02-16T00:23:06;9.30;4.50
12847;DHT22;6492;48.128;8.320;2024-02-16T00:27:09;9.20;5.50
12847;DHT22;6492;48.128;8.320;2024-02-16T00:31:11;9.20;5.90
12847;DHT22;6492;48.128;8.320;2024-02-16T00:35:14;9.10;6.50
12847;DHT22;6492;48.128;8.320;2024-02-16T00:39:18;9.00;6.00
12847;DHT22;6492;48.128;8.320;2024-02-16T00:43:21;9.00;3.80
12847;DHT22;6492;48.128;8.320;2024-02-16T00:47:23;9.10;1.50
12847;DHT22;6492;48.128;8.320;2024-02-16T00:51:26;9.20;3.00
12847;DHT22;6492;48.128;8.320;2024-02-16T00:55:28;9.30;5.60
12847;DHT22;6492;48.128;8.320;2024-02-16T00:59:31;9.20;5.60
12847;DHT22;6492;48.128;8.320;2024-02-16T01:03:33;9.10;6.60
12847;DHT22;6492;48.128;8.320;2024-02-16T01:07:34;9.10;6.70
12847;DHT22;6492;48.128;8.320;2024-02-16T01:11:36;9.10;3.80
12847;DHT22;6492;48.128;8.320;2024-02-16T01:15:39;9.20;1.00
12847;DHT22;6492;48.128;8.320;2024-02-16T01:19:41;9.40;1.00
12847;DHT22;6492;48.128;8.320;2024-02-16T01:23:43;9.60;1.00
12847;DHT22;6492;48.128;8.320;2024-02-16T01:27:45;9.70;1.00
12847;DHT22;6492;48.128;8.320;2024-02-16T01:31:48;9.50;1.00
12847;DHT22;6492;48.128;8.320;2024-02-16T01:35:50;9.40;1.30
12847;DHT22;6492;48.128;8.320;2024-02-16T01:39:51;9.20;1.50
12847;DHT22;6492;48.128;8.320;2024-02-16T01:43:53;9.10;2.10
12847;DHT22;6492;48.128;8.320;2024-02-16T01:47:58;9.10;2.30
12847;DHT22;6492;48.128;8.320;2024-02-16T01:52:00;9.00;2.50
12847;DHT22;6492;48.128;8.320;2024-02-16T01:56:04;8.90;2.20
12847;DHT22;6492;48.128;8.320;2024-02-16T02:00:07;8.90;2.10
12847;DHT22;6492;48.128;8.320;2024-02-16T02:04:10;8.90;1.80
12847;DHT22;6492;48.128;8.320;2024-02-16T02:08:13;8.90;1.50
12847;DHT22;6492;48.128;8.320;2024-02-16T02:12:15;8.80;1.20
12847;DHT22;6492;48.128;8.320;2024-02-16T02:16:19;8.80;1.20
12847;DHT22;6492;48.128;8.320;2024-02-16T02:20:22;8.80;1.20
12847;DHT22;6492;48.128;8.320;2024-02-16T02:24:26;8.80;1.80
12847;DHT22;6492;48.128;8.320;2024-02-16T02:28:27;8.70;2.00
12847;DHT22;6492;48.128;8.320;2024-02-16T02:32:30;8.70;3.00
12847;DHT22;6492;48.128;8.320;2024-02-16T02:36:31;8.70;3.80
12847;DHT22;6492;48.128;8.320;2024-02-16T02:40:35;8.70;3.90
12847;DHT22;6492;48.128;8.320;2024-02-16T02:44:37;8.70;3.60
12847;DHT22;6492;48.128;8.320;2024-02-16T02:48:39;8.70;4.70
12847;DHT22;6492;48.128;8.320;2024-02-16T02:52:40;8.70;3.90
12847;DHT22;6492;48.128;8.320;2024-02-16T02:56:44;8.70;4.10
12847;DHT22;6492;48.128;8.320;2024-02-16T03:00:45;8.70;4.80
12847;DHT22;6492;48.128;8.320;2024-02-16T03:04:47;8.70;5.70
12847;DHT22;6492;48.128;8.320;2024-02-16T03:08:49;8.70;5.60
12847;DHT22;6492;48.128;8.320;2024-02-16T03:12:52;8.70;6.00
12847;DHT22;6492;48.128;8.320;2024-02-16T03:16:55;8.70;6.00
12847;DHT22;6492;48.128;8.320;2024-02-16T03:20:57;8.60;5.60
12847;DHT22;6492;48.128;8.320;2024-02-16T03:24:59;8.60;5.70
12847;DHT22;6492;48.128;8.320;2024-02-16T03:29:02;8.50;5.70
12847;DHT22;6492;48.128;8.320;2024-02-16T03:33:04;8.50;5.60
12847;DHT22;6492;48.128;8.320;2024-02-16T03:37:06;8.50;5.70
12847;DHT22;6492;48.128;8.320;2024-02-16T03:41:12;8.50;6.00
12847;DHT22;6492;48.128;8.320;2024-02-16T03:45:16;8.50;6.10
12847;DHT22;6492;48.128;8.320;2024-02-16T03:49:18;8.50;6.50
12847;DHT22;6492;48.128;8.320;2024-02-16T03:53:19;8.50;7.50
12847;DHT22;6492;48.128;8.320;2024-02-16T03:57:21;8.50;7.90
12847;DHT22;6492;48.128;8.320;2024-02-16T04:01:24;8.40;8.40
12847;DHT22;6492;48.128;8.320;2024-02-16T04:05:26;8.30;9.70
12847;DHT22;6492;48.128;8.320;2024-02-16T04:09:31;8.20;9.80
12847;DHT22;6492;48.128;8.320;2024-02-16T04:13:33;8.20;9.70
12847;DHT22;6492;48.128;8.320;2024-02-16T04:17:36;8.30;10.10
12847;DHT22;6492;48.128;8.320;2024-02-16T04:21:38;8.20;10.20
12847;DHT22;6492;48.128;8.320;2024-02-16T04:25:39;8.20;10.10
12847;DHT22;6492;48.128;8.320;2024-02-16T04:29:42;8.30;10.70
12847;DHT22;6492;48.128;8.320;2024-02-16T04:33:45;8.20;10.50
12847;DHT22;6492;48.128;8.320;2024-02-16T04:37:47;8.30;11.70
12847;DHT22;6492;48.128;8.320;2024-02-16T04:41:49;8.30;11.90
12847;DHT22;6492;48.128;8.320;2024-02-16T04:45:52;8.20;12.10
12847;DHT22;6492;48.128;8.320;2024-02-16T04:49:56;8.20;12.80
12847;DHT22;6492;48.128;8.320;2024-02-16T04:53:57;8.10;13.40
12847;DHT22;6492;48.128;8.320;2024-02-16T04:57:59;8.00;14.00
12847;DHT22;6492;48.128;8.320;2024-02-16T05:02:01;7.90;14.10
12847;DHT22;6492;48.128;8.320;2024-02-16T05:06:06;7.90;12.90
12847;DHT22;6492;48.128;8.320;2024-02-16T05:10:08;7.90;12.80
12847;DHT22;6492;48.128;8.320;2024-02-16T05:14:11;8.00;12.50
12847;DHT22;6492;48.128;8.320;2024-02-16T05:18:13;8.00;12.80
12847;DHT22;6492;48.128;8.320;2024-02-16T05:22:16;8.00;13.30
12847;DHT22;6492;48.128;8.320;2024-02-16T05:26:19;8.00;14.60
12847;DHT22;6492;48.128;8.320;2024-02-16T05:30:21;7.90;15.00
12847;DHT22;6492;48.128;8.320;2024-02-16T05:34:23;7.90;15.00
12847;DHT22;6492;48.128;8.320;2024-02-16T05:38:26;7.90;15.20
12847;DHT22;6492;48.128;8.320;2024-02-16T05:42:35;7.90;14.90
12847;DHT22;6492;48.128;8.320;2024-02-16T05:46:37;7.80;14.90
12847;DHT22;6492;48.128;8.320;2024-02-16T05:50:39;7.70;16.10
12847;DHT22;6492;48.128;8.320;2024-02-16T05:54:42;7.70;16.10
12847;DHT22;6492;48.128;8.320;2024-02-16T05:58:44;7.60;16.40
12847;DHT22;6492;48.128;8.320;2024-02-16T06:02:46;7.50;17.30
12847;DHT22;6492;48.128;8.320;2024-02-16T06:06:48;7.40;17.80
12847;DHT22;6492;48.128;8.320;2024-02-16T06:10:51;7.40;18.10
12847;DHT22;6492;48.128;8.320;2024-02-16T06:14:54;7.30;18.00
12847;DHT22;6492;48.128;8.320;2024-02-16T06:19:00;7.40;17.90
12847;DHT22;6492;48.128;8.320;2024-02-16T06:23:01;7.40;17.50
12847;DHT22;6492;48.128;8.320;2024-02-16T06:27:05;7.90;15.70
12847;DHT22;6492;48.128;8.320;2024-02-16T06:31:13;8.10;15.40
12847;DHT22;6492;48.128;8.320;2024-02-16T06:35:16;8.20;14.90
12847;DHT22;6492;48.128;8.320;2024-02-16T06:39:18;8.30;14.50
12847;DHT22;6492;48.128;8.320;2024-02-16T06:43:21;8.40;14.40
12847;DHT22;6492;48.128;8.320;2024-02-16T06:47:23;8.60;14.00
12847;DHT22;6492;48.128;8.320;2024-02-16T06:51:26;8.70;13.70
12847;DHT22;6492;48.128;8.320;2024-02-16T06:55:29;8.80;13.00
12847;DHT22;6492;48.128;8.320;2024-02-16T06:59:32;9.20;12.30
12847;DHT22;6492;48.128;8.320;2024-02-16T07:03:33;9.40;11.90
12847;DHT22;6492;48.128;8.320;2024-02-16T07:07:37;9.60;11.40
12847;DHT22;6492;48.128;8.320;2024-02-16T07:11:38;9.60;11.50
12847;DHT22;6492;48.128;8.320;2024-02-16T07:15:42;9.70;11.20
12847;DHT22;6492;48.128;8.320;2024-02-16T07:19:44;9.70;11.20
12847;DHT22;6492;48.128;8.320;2024-02-16T07:23:46;9.80;11.10
12847;DHT22;6492;48.128;8.320;2024-02-16T07:27:48;9.90;11.40
12847;DHT22;6492;48.128;8.320;2024-02-16T07:31:51;9.90;11.30
12847;DHT22;6492;48.128;8.320;2024-02-16T07:35:53;9.90;11.50
12847;DHT22;6492;48.128;8.320;2024-02-16T07:39:55;10.00;12.40
12847;DHT22;6492;48.128;8.320;2024-02-16T07:43:56;10.10;11.70
12847;DHT22;6492;48.128;8.320;2024-02-16T07:48:00;10.20;11.50
12847;DHT22;6492;48.128;8.320;2024-02-16T07:52:05;10.30;12.30
12847;DHT22;6492;48.128;8.320;2024-02-16T07:56:07;10.40;11.90
12847;DHT22;6492;48.128;8.320;2024-02-16T08:00:11;10.40;11.40
12847;DHT22;6492;48.128;8.320;2024-02-16T08:04:16;10.50;11.30
12847;DHT22;6492;48.128;8.320;2024-02-16T08:08:22;10.60;10.60
12847;DHT22;6492;48.128;8.320;2024-02-16T08:12:44;10.80;10.20
12847;DHT22;6492;48.128;8.320;2024-02-16T08:16:47;10.90;9.80
12847;DHT22;6492;48.128;8.320;2024-02-16T08:20:50;11.00;10.00
12847;DHT22;6492;48.128;8.320;2024-02-16T08:24:52;11.10;10.40
12847;DHT22;6492;48.128;8.320;2024-02-16T08:28:54;11.30;10.40
12847;DHT22;6492;48.128;8.320;2024-02-16T08:32:57;11.40;9.80
12847;DHT22;6492;48.128;8.320;2024-02-16T08:37:02;11.40;9.90
12847;DHT22;6492;48.128;8.320;2024-02-16T08:41:04;11.60;8.50
12847;DHT22;6492;48.128;8.320;2024-02-16T08:45:14;11.80;7.80
12847;DHT22;6492;48.128;8.320;2024-02-16T08:49:19;12.00;6.40
12847;DHT22;6492;48.128;8.320;2024-02-16T08:53:22;12.10;6.60
12847;DHT22;6492;48.128;8.320;2024-02-16T08:57:24;12.20;7.00
12847;DHT22;6492;48.128;8.320;2024-02-16T09:01:32;12.10;6.00
12847;DHT22;6492;48.128;8.320;2024-02-16T09:05:34;12.10;6.00
12847;DHT22;6492;48.128;8.320;2024-02-16T09:09:37;11.90;6.60
12847;DHT22;6492;48.128;8.320;2024-02-16T09:13:51;11.80;7.60
12847;DHT22;6492;48.128;8.320;2024-02-16T09:17:53;11.80;7.70
12847;DHT22;6492;48.128;8.320;2024-02-16T09:21:55;11.80;8.00
12847;DHT22;6492;48.128;8.320;2024-02-16T09:26:00;11.90;8.20
12847;DHT22;6492;48.128;8.320;2024-02-16T09:30:04;11.90;8.30
12847;DHT22;6492;48.128;8.320;2024-02-16T09:34:06;12.00;7.50
12847;DHT22;6492;48.128;8.320;2024-02-16T09:38:08;12.20;7.30
12847;DHT22;6492;48.128;8.320;2024-02-16T09:42:12;12.50;7.10
12847;DHT22;6492;48.128;8.320;2024-02-16T09:46:15;12.70;6.70
12847;DHT22;6492;48.128;8.320;2024-02-16T09:50:20;13.10;6.90
12847;DHT22;6492;48.128;8.320;2024-02-16T09:54:22;13.40;5.40
12847;DHT22;6492;48.128;8.320;2024-02-16T09:58:27;13.80;4.50
12847;DHT22;6492;48.128;8.320;2024-02-16T10:02:39;14.20;2.90
12847;DHT22;6492;48.128;8.320;2024-02-16T10:06:48;14.70;2.20
12847;DHT22;6492;48.128;8.320;2024-02-16T10:11:00;14.90;2.00
12847;DHT22;6492;48.128;8.320;2024-02-16T10:15:05;15.40;1.00
12847;DHT22;6492;48.128;8.320;2024-02-16T10:19:07;15.70;1.00
12847;DHT22;6492;48.128;8.320;2024-02-16T10:23:11;15.60;1.00
12847;DHT22;6492;48.128;8.320;2024-02-16T10:27:17;15.50;1.00
12847;DHT22;6492;48.128;8.320;2024-02-16T10:31:22;15.50;1.00
12847;DHT22;6492;48.128;8.320;2024-02-16T10:35:29;15.80;1.00
12847;DHT22;6492;48.128;8.320;2024-02-16T10:39:40;15.90;1.00
12847;DHT22;6492;48.128;8.320;2024-02-16T10:43:43;16.00;1.00
12847;DHT22;6492;48.128;8.320;2024-02-16T10:47:54;16.20;1.00
12847;DHT22;6492;48.128;8.320;2024-02-16T10:51:56;16.50;1.00
12847;DHT22;6492;48.128;8.320;2024-02-16T10:56:00;16.40;1.00
12847;DHT22;6492;48.128;8.320;2024-02-16T11:00:08;16.50;1.00
12847;DHT22;6492;48.128;8.320;2024-02-16T11:04:14;17.00;1.00
12847;DHT22;6492;48.128;8.320;2024-02-16T11:08:17;17.20;1.00
12847;DHT22;6492;48.128;8.320;2024-02-16T11:12:33;17.20;1.00
12847;DHT22;6492;48.128;8.320;2024-02-16T11:16:44;17.10;1.00
12847;DHT22;6492;48.128;8.320;2024-02-16T11:20:49;16.90;1.00
12847;DHT22;6492;48.128;8.320;2024-02-16T11:24:53;16.80;1.00
12847;DHT22;6492;48.128;8.320;2024-02-16T11:28:55;16.50;1.00
12847;DHT22;6492;48.128;8.320;2024-02-16T11:32:57;16.40;1.00
12847;DHT22;6492;48.128;8.320;2024-02-16T11:37:01;16.30;1.00
12847;DHT22;6492;48.128;8.320;2024-02-16T11:41:04;16.40;1.00
12847;DHT22;6492;48.128;8.320;2024-02-16T11:45:09;16.60;1.00
12847;DHT22;6492;48.128;8.320;2024-02-16T11:49:11;16.70;1.00
12847;DHT22;6492;48.128;8.320;2024-02-16T11:53:16;17.20;1.00
12847;DHT22;6492;48.128;8.320;2024-02-16T11:57:19;17.50;1.00
12847;DHT22;6492;48.128;8.320;2024-02-16T12:01:30;18.00;1.00
12847;DHT22;6492;48.128;8.320;2024-02-16T12:05:34;18.00;1.00
12847;DHT22;6492;48.128;8.320;2024-02-16T12:09:37;17.70;1.00
12847;DHT22;6492;48.128;8.320;2024-02-16T12:13:39;17.30;1.00
12847;DHT22;6492;48.128;8.320;2024-02-16T12:17:41;17.10;1.00
12847;DHT22;6492;48.128;8.320;2024-02-16T12:21:43;16.60;1.00
12847;DHT22;6492;48.128;8.320;2024-02-16T12:25:57;16.40;1.00
12847;DHT22;6492;48.128;8.320;2024-02-16T12:29:58;16.20;1.00
12847;DHT22;6492;48.128;8.320;2024-02-16T12:34:00;16.00;1.00
12847;DHT22;6492;48.128;8.320;2024-02-16T12:38:04;16.10;1.00
12847;DHT22;6492;48.128;8.320;2024-02-16T12:42:07;16.00;1.00
12847;DHT22;6492;48.128;8.320;2024-02-16T12:46:09;16.00;1.00
12847;DHT22;6492;48.128;8.320;2024-02-16T12:50:11;15.90;1.00
12847;DHT22;6492;48.128;8.320;2024-02-16T12:54:13;15.70;1.00
12847;DHT22;6492;48.128;8.320;2024-02-16T12:58:20;15.60;1.20
12847;DHT22;6492;48.128;8.320;2024-02-16T13:02:22;15.50;1.00
12847;DHT22;6492;48.128;8.320;2024-02-16T13:06:25;15.60;2.40
12847;DHT22;6492;48.128;8.320;2024-02-16T13:10:26;15.80;1.00
12847;DHT22;6492;48.128;8.320;2024-02-16T13:14:29;15.70;1.00
12847;DHT22;6492;48.128;8.320;2024-02-16T13:18:31;15.30;1.10
12847;DHT22;6492;48.128;8.320;2024-02-16T13:22:33;15.00;2.40
12847;DHT22;6492;48.128;8.320;2024-02-16T13:26:36;14.90;3.30
12847;DHT22;6492;48.128;8.320;2024-02-16T13:30:39;14.80;2.90
12847;DHT22;6492;48.128;8.320;2024-02-16T13:34:40;14.70;4.00
12847;DHT22;6492;48.128;8.320;2024-02-16T13:38:42;14.50;4.20
12847;DHT22;6492;48.128;8.320;2024-02-16T13:42:44;14.30;5.20
12847;DHT22;6492;48.128;8.320;2024-02-16T13:46:47;14.00;6.00
12847;DHT22;6492;48.128;8.320;2024-02-16T13:50:50;14.00;6.40
12847;DHT22;6492;48.128;8.320;2024-02-16T13:54:52;13.90;6.70
12847;DHT22;6492;48.128;8.320;2024-02-16T14:03:51;13.60;7.90
12847;DHT22;6492;48.128;8.320;2024-02-16T14:07:53;13.30;8.30
12847;DHT22;6492;48.128;8.320;2024-02-16T14:11:55;13.10;9.20
12847;DHT22;6492;48.128;8.320;2024-02-16T14:15:59;13.00;10.00
12847;DHT22;6492;48.128;8.320;2024-02-16T14:20:02;12.80;10.50
12847;DHT22;6492;48.128;8.320;2024-02-16T14:24:05;12.70;10.90
12847;DHT22;6492;48.128;8.320;2024-02-16T14:28:07;12.70;11.50
12847;DHT22;6492;48.128;8.320;2024-02-16T14:32:09;12.70;12.00
12847;DHT22;6492;48.128;8.320;2024-02-16T14:36:12;12.70;12.20
12847;DHT22;6492;48.128;8.320;2024-02-16T14:40:14;12.80;12.10
12847;DHT22;6492;48.128;8.320;2024-02-16T14:44:16;13.00;12.10
12847;DHT22;6492;48.128;8.320;2024-02-16T14:48:18;13.20;11.20
12847;DHT22;6492;48.128;8.320;2024-02-16T14:52:23;13.30;11.30
12847;DHT22;6492;48.128;8.320;2024-02-16T14:56:29;13.30;10.70
12847;DHT22;6492;48.128;8.320;2024-02-16T15:00:31;13.40;10.90
12847;DHT22;6492;48.128;8.320;2024-02-16T15:04:35;13.30;10.70
12847;DHT22;6492;48.128;8.320;2024-02-16T15:08:39;13.20;11.20
12847;DHT22;6492;48.128;8.320;2024-02-16T15:12:41;13.20;11.70
12847;DHT22;6492;48.128;8.320;2024-02-16T15:16:43;13.20;11.60
12847;DHT22;6492;48.128;8.320;2024-02-16T15:20:45;13.10;12.00
12847;DHT22;6492;48.128;8.320;2024-02-16T15:24:48;13.10;12.30
12847;DHT22;6492;48.128;8.320;2024-02-16T15:28:59;13.00;12.70
12847;DHT22;6492;48.128;8.320;2024-02-16T15:33:01;12.90;13.20
12847;DHT22;6492;48.128;8.320;2024-02-16T15:37:03;12.90;13.60
12847;DHT22;6492;48.128;8.320;2024-02-16T15:41:07;12.80;14.00
12847;DHT22;6492;48.128;8.320;2024-02-16T15:45:09;12.70;14.40
12847;DHT22;6492;48.128;8.320;2024-02-16T15:49:11;12.50;14.90
12847;DHT22;6492;48.128;8.320;2024-02-16T15:53:13;12.40;15.80
12847;DHT22;6492;48.128;8.320;2024-02-16T15:57:17;12.20;16.60
12847;DHT22;6492;48.128;8.320;2024-02-16T16:01:19;12.10;17.60
12847;DHT22;6492;48.128;8.320;2024-02-16T16:05:20;12.00;18.70
12847;DHT22;6492;48.128;8.320;2024-02-16T16:09:23;11.80;19.50
12847;DHT22;6492;48.128;8.320;2024-02-16T16:13:26;11.60;20.10
12847;DHT22;6492;48.128;8.320;2024-02-16T16:17:42;11.50;21.00
12847;DHT22;6492;48.128;8.320;2024-02-16T16:21:43;11.40;21.70
12847;DHT22;6492;48.128;8.320;2024-02-16T16:25:46;11.20;22.30
12847;DHT22;6492;48.128;8.320;2024-02-16T16:29:50;11.20;22.80
12847;DHT22;6492;48.128;8.320;2024-02-16T16:33:52;11.00;23.10
12847;DHT22;6492;48.128;8.320;2024-02-16T16:37:53;11.00;23.60
12847;DHT22;6492;48.128;8.320;2024-02-16T16:41:55;10.90;24.30
12847;DHT22;6492;48.128;8.320;2024-02-16T16:45:58;10.80;24.70
12847;DHT22;6492;48.128;8.320;2024-02-16T16:50:00;10.70;25.30
12847;DHT22;6492;48.128;8.320;2024-02-16T16:54:02;10.60;25.60
12847;DHT22;6492;48.128;8.320;2024-02-16T16:58:04;10.60;26.10
12847;DHT22;6492;48.128;8.320;2024-02-16T17:02:07;10.50;27.00
12847;DHT22;6492;48.128;8.320;2024-02-16T17:06:09;10.50;27.70
12847;DHT22;6492;48.128;8.320;2024-02-16T17:10:11;10.40;27.90
12847;DHT22;6492;48.128;8.320;2024-02-16T17:14:18;10.30;28.20
12847;DHT22;6492;48.128;8.320;2024-02-16T17:18:22;10.30;28.70
12847;DHT22;6492;48.128;8.320;2024-02-16T17:22:32;10.20;29.40
12847;DHT22;6492;48.128;8.320;2024-02-16T17:26:44;10.10;29.90
12847;DHT22;6492;48.128;8.320;2024-02-16T17:31:06;10.00;30.30
12847;DHT22;6492;48.128;8.320;2024-02-16T17:35:09;10.00;31.60
12847;DHT22;6492;48.128;8.320;2024-02-16T17:39:11;9.90;32.50
12847;DHT22;6492;48.128;8.320;2024-02-16T17:43:13;9.80;33.00
12847;DHT22;6492;48.128;8.320;2024-02-16T17:47:15;9.70;34.90
12847;DHT22;6492;48.128;8.320;2024-02-16T17:51:18;9.70;35.80
12847;DHT22;6492;48.128;8.320;2024-02-16T17:55:21;9.60;35.90
12847;DHT22;6492;48.128;8.320;2024-02-16T17:59:24;9.60;36.80
12847;DHT22;6492;48.128;8.320;2024-02-16T18:03:27;9.50;37.50
12847;DHT22;6492;48.128;8.320;2024-02-16T18:07:37;9.50;38.10
12847;DHT22;6492;48.128;8.320;2024-02-16T18:11:39;9.30;38.10
12847;DHT22;6492;48.128;8.320;2024-02-16T18:15:40;9.10;39.00
12847;DHT22;6492;48.128;8.320;2024-02-16T18:19:42;9.10;41.60
12847;DHT22;6492;48.128;8.320;2024-02-16T18:23:46;9.10;44.70
12847;DHT22;6492;48.128;8.320;2024-02-16T18:27:55;9.10;45.70
12847;DHT22;6492;48.128;8.320;2024-02-16T18:32:00;9.10;45.90
12847;DHT22;6492;48.128;8.320;2024-02-16T18:36:04;9.10;45.60
12847;DHT22;6492;48.128;8.320;2024-02-16T18:40:09;9.00;45.30
12847;DHT22;6492;48.128;8.320;2024-02-16T18:44:11;8.90;45.50
12847;DHT22;6492;48.128;8.320;2024-02-16T18:48:13;8.80;46.10
12847;DHT22;6492;48.128;8.320;2024-02-16T18:52:15;8.80;46.40
12847;DHT22;6492;48.128;8.320;2024-02-16T18:56:18;9.00;47.20
12847;DHT22;6492;48.128;8.320;2024-02-16T19:00:20;8.80;47.90
12847;DHT22;6492;48.128;8.320;2024-02-16T19:04:22;8.80;48.40
12847;DHT22;6492;48.128;8.320;2024-02-16T19:08:24;8.80;49.20
12847;DHT22;6492;48.128;8.320;2024-02-16T19:12:27;8.80;48.90
12847;DHT22;6492;48.128;8.320;2024-02-16T19:16:29;8.80;49.00
12847;DHT22;6492;48.128;8.320;2024-02-16T19:20:31;8.80;49.00
12847;DHT22;6492;48.128;8.320;2024-02-16T19:24:33;8.70;49.10
12847;DHT22;6492;48.128;8.320;2024-02-16T19:28:36;8.80;49.90
12847;DHT22;6492;48.128;8.320;2024-02-16T19:32:39;8.80;49.90
12847;DHT22;6492;48.128;8.320;2024-02-16T19:36:41;8.80;50.00
12847;DHT22;6492;48.128;8.320;2024-02-16T19:40:43;8.80;49.90
12847;DHT22;6492;48.128;8.320;2024-02-16T19:44:47;8.70;50.00
12847;DHT22;6492;48.128;8.320;2024-02-16T19:48:49;8.80;50.10
12847;DHT22;6492;48.128;8.320;2024-02-16T19:52:51;8.70;50.20
12847;DHT22;6492;48.128;8.320;2024-02-16T19:57:17;8.80;50.40
12847;DHT22;6492;48.128;8.320;2024-02-16T20:01:27;8.70;50.60
12847;DHT22;6492;48.128;8.320;2024-02-16T20:05:29;8.70;51.10
12847;DHT22;6492;48.128;8.320;2024-02-16T20:09:34;8.70;51.90
12847;DHT22;6492;48.128;8.320;2024-02-16T20:13:36;8.80;52.50
12847;DHT22;6492;48.128;8.320;2024-02-16T20:17:41;8.80;53.30
12847;DHT22;6492;48.128;8.320;2024-02-16T20:21:43;8.80;53.80
12847;DHT22;6492;48.128;8.320;2024-02-16T20:25:45;8.80;53.00
12847;DHT22;6492;48.128;8.320;2024-02-16T20:29:46;8.80;53.20
12847;DHT22;6492;48.128;8.320;2024-02-16T20:33:50;8.70;53.30
12847;DHT22;6492;48.128;8.320;2024-02-16T20:37:52;8.70;53.80
12847;DHT22;6492;48.128;8.320;2024-02-16T20:41:53;8.70;54.90
12847;DHT22;6492;48.128;8.320;2024-02-16T20:45:55;8.70;56.10
12847;DHT22;6492;48.128;8.320;2024-02-16T20:49:59;8.70;56.40
12847;DHT22;6492;48.128;8.320;2024-02-16T20:54:02;8.70;56.50
12847;DHT22;6492;48.128;8.320;2024-02-16T20:58:04;8.70;56.50
12847;DHT22;6492;48.128;8.320;2024-02-16T21:02:06;8.60;56.30
12847;DHT22;6492;48.128;8.320;2024-02-16T21:06:18;8.60;57.00
12847;DHT22;6492;48.128;8.320;2024-02-16T21:10:20;8.60;57.90
12847;DHT22;6492;48.128;8.320;2024-02-16T21:14:23;8.60;58.10
12847;DHT22;6492;48.128;8.320;2024-02-16T21:18:25;8.60;58.60
12847;DHT22;6492;48.128;8.320;2024-02-16T21:22:28;8.60;59.10
12847;DHT22;6492;48.128;8.320;2024-02-16T21:26:30;8.60;59.50
12847;DHT22;6492;48.128;8.320;2024-02-16T21:30:31;8.60;59.20
12847;DHT22;6492;48.128;8.320;2024-02-16T21:34:35;8.70;58.70
12847;DHT22;6492;48.128;8.320;2024-02-16T21:38:38;8.70;58.30
12847;DHT22;6492;48.128;8.320;2024-02-16T21:42:46;8.70;58.20
12847;DHT22;6492;48.128;8.320;2024-02-16T21:46:48;8.70;58.10
12847;DHT22;6492;48.128;8.320;2024-02-16T21:50:59;8.70;58.70
12847;DHT22;6492;48.128;8.320;2024-02-16T21:55:02;8.70;59.80
12847;DHT22;6492;48.128;8.320;2024-02-16T21:59:05;8.70;59.30
12847;DHT22;6492;48.128;8.320;2024-02-16T22:03:08;8.60;59.40
12847;DHT22;6492;48.128;8.320;2024-02-16T22:07:11;8.60;59.60
12847;DHT22;6492;48.128;8.320;2024-02-16T22:11:16;8.60;60.20
12847;DHT22;6492;48.128;8.320;2024-02-16T22:15:29;8.60;60.60
12847;DHT22;6492;48.128;8.320;2024-02-16T22:19:38;8.50;61.00
12847;DHT22;6492;48.128;8.320;2024-02-16T22:23:46;8.50;61.40
12847;DHT22;6492;48.128;8.320;2024-02-16T22:27:52;8.40;62.00
12847;DHT22;6492;48.128;8.320;2024-02-16T22:32:04;8.40;62.50
12847;DHT22;6492;48.128;8.320;2024-02-16T22:36:07;8.40;62.90
12847;DHT22;6492;48.128;8.320;2024-02-16T22:40:11;8.40;63.30
12847;DHT22;6492;48.128;8.320;2024-02-16T22:44:14;8.30;64.00
12847;DHT22;6492;48.128;8.320;2024-02-16T22:48:16;8.30;64.40
12847;DHT22;6492;48.128;8.320;2024-02-16T22:52:17;8.30;64.70
12847;DHT22;6492;48.128;8.320;2024-02-16T22:56:25;8.30;65.00
12847;DHT22;6492;48.128;8.320;2024-02-16T23:00:28;8.30;65.20
12847;DHT22;6492;48.128;8.320;2024-02-16T23:04:33;8.30;65.50
12847;DHT22;6492;48.128;8.320;2024-02-16T23:08:35;8.30;65.60
12847;DHT22;6492;48.128;8.320;2024-02-16T23:12:38;8.30;65.60
12847;DHT22;6492;48.128;8.320;2024-02-16T23:16:44;8.30;65.90
12847;DHT22;6492;48.128;8.320;2024-02-16T23:20:46;8.30;66.30
12847;DHT22;6492;48.128;8.320;2024-02-16T23:24:48;8.30;66.10
12847;DHT22;6492;48.128;8.320;2024-02-16T23:28:49;8.30;66.00
12847;DHT22;6492;48.128;8.320;2024-02-16T23:32:54;8.30;66.30
12847;DHT22;6492;48.128;8.320;2024-02-16T23:36:56;8.30;66.40
12847;DHT22;6492;48.128;8.320;2024-02-16T23:40:59;8.30;66.60
12847;DHT22;6492;48.128;8.320;2024-02-16T23:45:01;8.30;66.60
12847;DHT22;6492;48.128;8.320;2024-02-16T23:49:04;8.30;67.00
12847;DHT22;6492;48.128;8.320;2024-02-16T23:53:06;8.30;67.20
12847;DHT22;6492;48.128;8.320;2024-02-16T23:57:08;8.30;67.40
